Time;durP1;ratioP1;P1;durP2;ratioP2;P2;SDS_P1;SDS_P2;PMS_P1;PMS_P2;Temp;Humidity;BMP_temperature;BMP_pressure;BME280_temperature;BME280_humidity;BME280_pressure;Samples;Min_cycle;Max_cycle;Signal;HPM_P1;HPM_P2
2023/05/23 00:02:19;;;;;;;62.92;26.63;;;12.90;81.40;;;;;;6133298;23;20026;-90
2023/05/23 00:04:48;;;;;;;53.53;25.90;;;12.90;81.40;;;;;;6159387;23;20017;-94
2023/05/23 00:07:17;;;;;;;50.60;26.15;;;12.90;81.20;;;;;;6129828;23;20020;-93
2023/05/23 00:09:48;;;;;;;50.95;25.02;;;12.80;81.20;;;;;;6133928;23;20091;-92
2023/05/23 00:12:14;;;;;;;45.33;24.27;;;12.80;81.40;;;;;;6132383;23;20021;-92
2023/05/23 00:14:40;;;;;;;38.13;23.88;;;12.80;81.40;;;;;;6159307;23;20163;-92
2023/05/23 00:17:09;;;;;;;43.95;24.70;;;12.80;81.40;;;;;;6139638;23;20024;-91
2023/05/23 00:19:35;;;;;;;40.90;23.88;;;12.70;81.30;;;;;;6185336;23;20025;-91
2023/05/23 00:22:02;;;;;;;38.15;24.25;;;12.70;81.40;;;;;;6135759;23;20440;-92
2023/05/23 00:24:30;;;;;;;36.17;24.85;;;12.70;81.30;;;;;;6105455;23;20021;-93
2023/05/23 00:27:06;;;;;;;42.63;24.33;;;12.70;81.40;;;;;;6128030;23;20018;-93
2023/05/23 00:29:32;;;;;;;38.15;23.80;;;12.70;81.40;;;;;;6082914;23;20025;-91
2023/05/23 00:31:58;;;;;;;41.00;23.10;;;12.60;81.40;;;;;;6130922;23;20415;-94
2023/05/23 00:34:24;;;;;;;36.25;21.58;;;12.60;81.40;;;;;;6158490;23;20092;-91
2023/05/23 00:36:50;;;;;;;36.88;20.83;;;12.60;81.40;;;;;;6157639;23;20009;-92
2023/05/23 00:39:19;;;;;;;38.78;21.48;;;12.60;81.30;;;;;;6160156;23;20017;-94
2023/05/23 00:41:46;;;;;;;36.33;20.17;;;12.60;81.40;;;;;;6088409;23;20080;-92
2023/05/23 00:44:14;;;;;;;29.95;18.60;;;12.50;81.30;;;;;;6121878;23;20096;-92
2023/05/23 00:46:47;;;;;;;29.40;16.23;;;12.50;81.20;;;;;;6134684;23;20017;-92
2023/05/23 00:49:13;;;;;;;32.78;16.27;;;12.50;81.20;;;;;;6133019;23;20452;-92
2023/05/23 00:51:41;;;;;;;30.02;15.13;;;12.50;81.20;;;;;;6155366;23;20437;-90
2023/05/23 00:54:42;;;;;;;23.65;14.50;;;12.50;81.20;;;;;;6112362;23;20149;-93
2023/05/23 00:57:08;;;;;;;29.33;14.88;;;12.50;81.20;;;;;;6152665;23;20036;-91
2023/05/23 00:59:36;;;;;;;25.13;13.90;;;12.50;81.20;;;;;;6131279;23;20444;-91
2023/05/23 01:02:05;;;;;;;27.27;13.55;;;12.50;81.20;;;;;;6106326;23;20018;-90
2023/05/23 01:04:35;;;;;;;23.75;13.35;;;12.50;81.10;;;;;;6131655;23;20021;-91
2023/05/23 01:07:02;;;;;;;26.98;12.25;;;12.50;81.00;;;;;;6103726;23;20021;-92
2023/05/23 01:09:28;;;;;;;22.20;12.63;;;12.50;81.00;;;;;;6188825;23;20459;-91
2023/05/23 01:12:06;;;;;;;32.00;14.32;;;12.40;81.00;;;;;;6165958;23;20028;-93
2023/05/23 01:15:08;;;;;;;30.10;14.05;;;12.30;80.90;;;;;;6189172;23;20334;-93
2023/05/23 01:17:51;;;;;;;30.60;14.45;;;12.30;80.90;;;;;;6170686;23;20025;-92
2023/05/23 01:20:22;;;;;;;30.95;14.75;;;12.20;80.80;;;;;;6190742;23;20096;-91
2023/05/23 01:23:00;;;;;;;43.10;16.88;;;12.10;80.80;;;;;;6163592;23;20017;-92
2023/05/23 01:25:58;;;;;;;47.58;17.90;;;12.10;80.80;;;;;;6190933;23;20482;-90
2023/05/23 01:28:28;;;;;;;48.25;18.42;;;12.00;80.70;;;;;;6186009;23;20024;-93
2023/05/23 01:31:12;;;;;;;43.00;18.30;;;11.90;80.70;;;;;;6165512;23;20024;-92
2023/05/23 01:33:40;;;;;;;41.47;18.15;;;11.80;80.70;;;;;;6189378;23;20059;-91
2023/05/23 01:36:09;;;;;;;41.33;17.35;;;11.70;80.70;;;;;;6165489;23;20100;-94
2023/05/23 01:38:46;;;;;;;48.70;19.25;;;11.70;80.70;;;;;;6163449;23;20099;-92
2023/05/23 01:41:14;;;;;;;45.20;19.20;;;11.70;80.80;;;;;;6190728;23;20020;-92
2023/05/23 01:43:40;;;;;;;42.78;18.73;;;11.70;80.80;;;;;;6189693;23;20456;-92
2023/05/23 01:46:09;;;;;;;40.45;18.55;;;11.60;80.90;;;;;;6190423;23;20016;-93
2023/05/23 01:48:40;;;;;;;51.90;18.55;;;11.60;80.80;;;;;;6186954;23;20028;-92
2023/05/23 01:51:14;;;;;;;45.05;18.00;;;11.50;80.80;;;;;;6189767;23;20020;-93
2023/05/23 01:53:40;;;;;;;47.38;18.65;;;11.50;80.80;;;;;;6163360;23;20020;-92
2023/05/23 01:56:07;;;;;;;36.58;16.60;;;11.50;80.80;;;;;;6165437;23;20098;-93
2023/05/23 01:58:33;;;;;;;40.95;16.63;;;11.50;80.80;;;;;;6184364;23;20098;-92
2023/05/23 02:00:59;;;;;;;34.35;16.27;;;11.50;80.80;;;;;;6189662;23;20021;-91
2023/05/23 02:03:28;;;;;;;34.53;14.35;;;11.50;80.70;;;;;;6139032;23;20474;-91
2023/05/23 02:05:54;;;;;;;33.92;13.65;;;11.50;80.70;;;;;;6164695;23;20024;-92
2023/05/23 02:08:20;;;;;;;43.90;13.43;;;11.50;80.50;;;;;;6160478;23;20025;-91
2023/05/23 02:10:46;;;;;;;38.80;13.77;;;11.50;80.50;;;;;;6188671;23;20023;-92
2023/05/23 02:13:14;;;;;;;41.13;12.98;;;11.50;80.50;;;;;;6139138;23;20036;-92
2023/05/23 02:15:40;;;;;;;40.15;12.90;;;11.50;80.50;;;;;;6116259;23;20044;-90
2023/05/23 02:18:06;;;;;;;38.15;12.77;;;11.50;80.40;;;;;;6186322;23;20023;-91
2023/05/23 02:20:31;;;;;;;37.22;12.88;;;11.50;80.30;;;;;;6189382;23;20016;-92
2023/05/23 02:22:57;;;;;;;37.97;13.05;;;11.50;80.30;;;;;;6187890;23;20075;-91
2023/05/23 02:25:23;;;;;;;41.88;11.95;;;11.50;80.20;;;;;;6189059;23;20436;-93
2023/05/23 02:27:49;;;;;;;35.65;11.43;;;11.40;80.20;;;;;;6106211;23;20027;-92
2023/05/23 02:30:15;;;;;;;33.05;11.23;;;11.40;80.00;;;;;;6159742;23;20013;-91
2023/05/23 02:32:41;;;;;;;33.60;10.57;;;11.40;80.00;;;;;;6133541;23;20025;-91
2023/05/23 02:35:07;;;;;;;30.30;11.05;;;11.40;79.90;;;;;;6159489;23;20020;-91
2023/05/23 02:37:33;;;;;;;33.67;11.00;;;11.40;79.90;;;;;;6181050;23;20058;-92
2023/05/23 02:40:13;;;;;;;27.63;10.00;;;11.40;79.80;;;;;;6159499;23;20025;-90
2023/05/23 02:42:39;;;;;;;29.97;11.07;;;11.40;79.80;;;;;;6120687;23;20379;-91
2023/05/23 02:45:05;;;;;;;37.03;12.23;;;11.40;79.70;;;;;;6159822;23;20065;-90
2023/05/23 02:47:31;;;;;;;33.15;11.13;;;11.40;79.70;;;;;;6131641;23;20329;-90
2023/05/23 02:49:57;;;;;;;33.92;11.68;;;11.40;79.70;;;;;;6111137;23;20028;-93
2023/05/23 02:52:23;;;;;;;32.88;12.15;;;11.40;79.60;;;;;;6157759;23;20067;-93
2023/05/23 02:54:49;;;;;;;36.95;13.10;;;11.40;79.60;;;;;;6135094;23;20099;-92
2023/05/23 02:57:15;;;;;;;38.38;13.45;;;11.40;79.50;;;;;;6141089;23;20052;-92
2023/05/23 02:59:41;;;;;;;32.90;12.18;;;11.40;79.50;;;;;;6159346;23;20021;-92
2023/05/23 03:02:07;;;;;;;38.70;11.88;;;11.40;79.60;;;;;;6182650;23;20075;-93
2023/05/23 03:04:33;;;;;;;35.90;11.77;;;11.40;79.50;;;;;;6159399;23;20024;-90
2023/05/23 03:06:58;;;;;;;28.50;10.40;;;11.40;79.40;;;;;;6133042;23;20028;-92
2023/05/23 03:09:25;;;;;;;30.55;10.68;;;11.40;79.40;;;;;;6182667;23;20017;-91
2023/05/23 03:11:51;;;;;;;33.35;10.27;;;11.40;79.40;;;;;;6159535;23;20025;-92
2023/05/23 03:14:17;;;;;;;22.52;10.13;;;11.30;79.30;;;;;;6157615;23;20053;-93
2023/05/23 03:16:48;;;;;;;35.90;9.88;;;11.30;79.40;;;;;;6132041;23;20028;-92
2023/05/23 03:19:14;;;;;;;25.08;10.73;;;11.30;79.40;;;;;;6133594;23;20025;-91
2023/05/23 03:21:40;;;;;;;34.38;10.60;;;11.30;79.40;;;;;;6159540;23;20096;-91
2023/05/23 03:24:08;;;;;;;29.20;10.27;;;11.30;79.40;;;;;;6158325;23;20021;-93
2023/05/23 03:26:35;;;;;;;30.05;9.73;;;11.30;79.30;;;;;;6133132;23;20024;-93
2023/05/23 03:29:01;;;;;;;28.75;9.45;;;11.30;79.40;;;;;;6157938;23;20355;-91
2023/05/23 03:31:26;;;;;;;27.85;9.85;;;11.30;79.50;;;;;;6159573;23;20021;-90
2023/05/23 03:33:52;;;;;;;28.20;9.60;;;11.30;79.50;;;;;;6157941;23;20029;-93
2023/05/23 03:36:18;;;;;;;26.05;8.75;;;11.30;79.60;;;;;;6158164;23;20053;-91
2023/05/23 03:38:44;;;;;;;33.92;9.38;;;11.30;79.60;;;;;;6133893;23;20025;-91
2023/05/23 03:41:10;;;;;;;30.40;8.57;;;11.20;79.60;;;;;;6134977;23;20124;-91
2023/05/23 03:43:35;;;;;;;26.98;8.20;;;11.20;79.70;;;;;;6156581;23;20107;-91
2023/05/23 03:46:16;;;;;;;29.90;8.73;;;11.20;79.70;;;;;;6134981;23;20017;-94
2023/05/23 03:48:41;;;;;;;29.83;8.43;;;11.10;79.60;;;;;;6099167;23;20027;-92
2023/05/23 03:51:07;;;;;;;26.00;8.07;;;11.10;79.60;;;;;;6159012;23;20048;-93
2023/05/23 03:53:33;;;;;;;25.48;8.07;;;11.10;79.50;;;;;;6132333;23;20479;-92
2023/05/23 03:55:59;;;;;;;28.27;8.20;;;11.10;79.50;;;;;;6135152;23;20045;-93
2023/05/23 03:58:30;;;;;;;28.27;8.75;;;11.10;79.50;;;;;;6179642;23;20418;-94
2023/05/23 04:01:00;;;;;;;;;;;11.10;79.40;;;;;;6112407;23;20017;-96
2023/05/23 04:03:31;;;;;;;30.17;9.18;;;11.10;79.50;;;;;;6134063;23;19916;-94
2023/05/23 04:06:16;;;;;;;26.65;9.10;;;11.10;79.40;;;;;;6134465;23;20023;-93
2023/05/23 04:08:44;;;;;;;30.97;9.17;;;11.10;79.40;;;;;;6116769;23;20040;-93
2023/05/23 04:11:10;;;;;;;29.40;7.78;;;11.10;79.30;;;;;;6157909;23;20506;-94
2023/05/23 04:13:37;;;;;;;22.08;7.07;;;11.10;79.20;;;;;;6156850;23;20019;-93
2023/05/23 04:16:06;;;;;;;26.55;7.68;;;11.10;79.20;;;;;;6133569;23;20105;-94
2023/05/23 04:18:33;;;;;;;24.70;6.90;;;11.10;79.10;;;;;;6136310;23;20020;-95
2023/05/23 04:20:59;;;;;;;21.35;6.30;;;11.10;79.10;;;;;;6133166;23;20070;-91
2023/05/23 04:23:34;;;;;;;21.10;6.10;;;11.10;79.10;;;;;;6131955;23;20086;-93
2023/05/23 04:26:00;;;;;;;25.70;7.30;;;11.10;79.10;;;;;;6157092;23;20017;-93
2023/05/23 04:28:26;;;;;;;27.05;8.18;;;11.00;79.30;;;;;;6149642;23;20037;-93
2023/05/23 04:30:52;;;;;;;32.50;10.02;;;11.00;79.30;;;;;;6158117;23;20024;-93
2023/05/23 04:33:18;;;;;;;33.27;9.43;;;10.90;79.30;;;;;;6156426;23;20021;-95
2023/05/23 04:35:44;;;;;;;33.03;9.25;;;10.90;79.20;;;;;;6133880;23;20036;-93
2023/05/23 04:38:12;;;;;;;27.10;9.33;;;10.90;79.30;;;;;;6127638;23;20021;-94
2023/05/23 04:40:38;;;;;;;30.27;10.33;;;10.90;79.20;;;;;;6132390;23;20021;-93
2023/05/23 04:43:04;;;;;;;33.13;9.83;;;10.90;79.10;;;;;;6181130;23;20091;-93
2023/05/23 04:45:29;;;;;;;28.45;10.18;;;10.80;79.00;;;;;;6109321;23;20037;-92
2023/05/23 04:47:55;;;;;;;33.00;11.32;;;10.80;79.00;;;;;;6101330;23;20025;-95
2023/05/23 04:50:21;;;;;;;30.45;11.85;;;10.80;79.10;;;;;;6145167;23;20042;-93
2023/05/23 04:52:47;;;;;;;37.72;12.20;;;10.80;79.10;;;;;;6181195;23;20036;-94
2023/05/23 04:55:13;;;;;;;31.73;12.83;;;10.70;79.00;;;;;;6134435;23;20024;-93
2023/05/23 04:57:39;;;;;;;27.87;11.60;;;10.70;79.00;;;;;;6101880;23;20017;-95
2023/05/23 05:00:11;;;;;;;28.10;11.77;;;10.70;79.00;;;;;;6134055;23;20100;-93
2023/05/23 05:02:38;;;;;;;34.10;10.45;;;10.60;79.00;;;;;;6156768;23;20025;-94
2023/05/23 05:05:04;;;;;;;25.42;10.50;;;10.60;79.00;;;;;;6134395;23;20060;-92
2023/05/23 05:07:30;;;;;;;25.37;9.80;;;10.60;79.00;;;;;;6128248;23;20069;-96
2023/05/23 05:09:56;;;;;;;25.60;9.70;;;10.50;78.90;;;;;;6160717;23;20025;-94
2023/05/23 05:12:22;;;;;;;27.00;8.43;;;10.50;78.80;;;;;;6134478;23;21480;-94
2023/05/23 05:14:47;;;;;;;24.97;10.10;;;10.50;78.70;;;;;;6135788;23;20017;-95
2023/05/23 05:17:13;;;;;;;24.93;9.30;;;10.40;78.60;;;;;;6127369;23;20013;-93
2023/05/23 05:19:39;;;;;;;31.67;9.67;;;10.40;78.60;;;;;;6157942;23;20075;-93
2023/05/23 05:22:06;;;;;;;25.00;8.93;;;10.40;78.40;;;;;;6131901;23;20017;-94
2023/05/23 05:24:35;;;;;;;27.27;9.17;;;10.30;78.20;;;;;;6136256;23;20021;-94
2023/05/23 05:27:01;;;;;;;19.97;8.63;;;10.30;78.10;;;;;;6158151;23;20839;-91
2023/05/23 05:29:32;;;;;;;27.87;9.70;;;10.40;78.10;;;;;;6160870;23;20013;-93
2023/05/23 05:32:00;;;;;;;22.17;8.40;;;10.30;78.00;;;;;;6163158;23;20017;-93
2023/05/23 05:34:28;;;;;;;26.77;7.23;;;10.30;77.90;;;;;;6160936;23;20337;-94
2023/05/23 05:36:55;;;;;;;20.60;7.53;;;10.30;77.60;;;;;;6107853;23;20032;-93
2023/05/23 05:39:22;;;;;;;21.73;7.30;;;10.30;77.60;;;;;;6113798;23;20024;-94
2023/05/23 05:41:48;;;;;;;27.43;8.07;;;10.30;77.50;;;;;;6163861;23;20017;-93
2023/05/23 05:44:14;;;;;;;22.93;7.60;;;10.20;77.50;;;;;;6137019;23;20479;-94
2023/05/23 05:46:40;;;;;;;19.93;7.47;;;10.20;77.50;;;;;;6132435;23;20021;-93
2023/05/23 05:49:08;;;;;;;16.47;7.23;;;10.20;77.50;;;;;;6110684;23;20448;-93
2023/05/23 05:51:34;;;;;;;21.07;6.87;;;10.20;77.40;;;;;;6137102;23;20329;-94
2023/05/23 05:54:00;;;;;;;17.87;6.07;;;10.30;77.40;;;;;;6112024;23;20024;-94
2023/05/23 05:56:26;;;;;;;14.07;5.70;;;10.20;77.30;;;;;;6134690;23;20739;-93
2023/05/23 05:58:52;;;;;;;17.97;5.83;;;10.20;77.30;;;;;;6131415;23;20048;-93
2023/05/23 06:01:18;;;;;;;21.03;5.60;;;10.20;77.20;;;;;;6135899;23;20017;-93
2023/05/23 06:03:44;;;;;;;18.83;5.43;;;10.20;77.20;;;;;;6133823;23;20029;-93
2023/05/23 06:06:10;;;;;;;16.37;6.13;;;10.20;77.20;;;;;;6159403;23;20052;-94
2023/05/23 06:08:35;;;;;;;18.93;6.33;;;10.20;77.20;;;;;;6128823;23;20100;-94
2023/05/23 06:11:01;;;;;;;21.73;6.37;;;10.20;77.30;;;;;;6159907;23;20017;-94
2023/05/23 06:13:27;;;;;;;22.87;5.83;;;10.20;77.30;;;;;;6110074;23;20036;-93
2023/05/23 06:15:55;;;;;;;19.47;5.30;;;10.20;76.90;;;;;;6134708;23;20017;-93
2023/05/23 06:18:21;;;;;;;19.37;5.50;;;10.30;76.80;;;;;;6127354;23;20040;-94
2023/05/23 06:20:47;;;;;;;20.67;5.83;;;10.30;76.40;;;;;;6087243;23;20021;-93
2023/05/23 06:23:13;;;;;;;20.93;5.57;;;10.40;76.30;;;;;;6108598;23;20017;-92
2023/05/23 06:25:38;;;;;;;22.00;6.27;;;10.40;75.40;;;;;;6161620;23;20017;-93
2023/05/23 06:28:04;;;;;;;19.23;5.67;;;10.40;75.50;;;;;;6150474;23;20028;-92
2023/05/23 06:30:30;;;;;;;23.40;5.83;;;10.40;74.60;;;;;;6191971;23;20331;-94
2023/05/23 06:32:56;;;;;;;18.83;5.27;;;10.40;74.90;;;;;;6190889;23;20020;-92
2023/05/23 06:35:21;;;;;;;27.83;6.33;;;10.40;74.80;;;;;;6215893;23;20044;-92
2023/05/23 06:37:47;;;;;;;26.23;6.43;;;10.50;74.50;;;;;;6184567;23;20017;-93
2023/05/23 06:40:16;;;;;;;24.90;6.55;;;10.60;74.20;;;;;;6142156;23;20344;-93
2023/05/23 06:42:42;;;;;;;25.13;6.57;;;10.60;74.10;;;;;;6214305;23;20028;-94
2023/05/23 06:45:08;;;;;;;22.50;5.57;;;10.70;74.20;;;;;;6167251;23;20075;-93
2023/05/23 06:47:34;;;;;;;30.08;6.50;;;10.70;73.80;;;;;;6158478;23;20028;-94
2023/05/23 06:50:01;;;;;;;28.20;6.40;;;10.70;73.60;;;;;;6191127;23;20020;-93
2023/05/23 06:52:26;;;;;;;23.37;6.33;;;10.70;73.60;;;;;;6188806;23;20024;-93
2023/05/23 06:54:52;;;;;;;22.80;5.97;;;10.70;73.40;;;;;;6189343;23;20792;-92
2023/05/23 06:57:21;;;;;;;32.05;6.00;;;10.70;73.40;;;;;;6132341;23;20019;-94
2023/05/23 06:59:47;;;;;;;26.33;6.22;;;10.80;73.20;;;;;;6115924;23;20021;-92
2023/05/23 07:02:12;;;;;;;29.08;6.10;;;10.90;73.20;;;;;;6187746;23;20022;-94
2023/05/23 07:04:38;;;;;;;25.52;6.03;;;11.00;73.20;;;;;;6115718;23;20040;-90
2023/05/23 07:07:05;;;;;;;22.07;5.90;;;11.00;73.40;;;;;;6180644;23;20016;-90
2023/05/23 07:09:30;;;;;;;26.38;6.45;;;11.00;72.90;;;;;;6189124;23;20095;-94
2023/05/23 07:11:56;;;;;;;28.67;5.97;;;11.00;73.00;;;;;;6164948;23;20016;-94
2023/05/23 07:14:22;;;;;;;27.50;6.10;;;11.00;73.00;;;;;;6139655;23;20096;-96
2023/05/23 07:16:48;;;;;;;26.30;5.63;;;11.00;72.80;;;;;;6183531;23;20122;-93
2023/05/23 07:19:20;;;;;;;27.77;5.60;;;11.00;72.20;;;;;;6187977;23;20058;-95
2023/05/23 07:21:48;;;;;;;27.70;5.43;;;11.00;72.50;;;;;;6191477;23;20017;-93
2023/05/23 07:24:14;;;;;;;26.30;5.90;;;11.00;72.70;;;;;;6190115;23;20040;-94
2023/05/23 07:26:40;;;;;;;24.73;5.93;;;11.10;72.70;;;;;;6166042;23;20107;-91
2023/05/23 07:29:06;;;;;;;26.00;5.30;;;11.10;72.50;;;;;;6162383;23;20372;-94
2023/05/23 07:31:32;;;;;;;22.85;5.30;;;11.10;72.30;;;;;;6189988;23;20071;-93
2023/05/23 07:33:58;;;;;;;24.08;5.55;;;11.10;72.20;;;;;;6188070;23;20016;-94
2023/05/23 07:36:23;;;;;;;21.90;5.47;;;11.10;72.50;;;;;;6161681;23;20383;-94
2023/05/23 07:38:50;;;;;;;27.50;5.93;;;11.10;72.60;;;;;;6136229;23;20044;-95
2023/05/23 07:41:15;;;;;;;29.73;5.85;;;11.10;72.30;;;;;;6139008;23;20024;-95
2023/05/23 07:43:44;;;;;;;25.65;5.72;;;11.10;72.30;;;;;;6212407;23;20013;-94
2023/05/23 07:46:15;;;;;;;20.40;4.65;;;11.20;71.80;;;;;;6189029;23;20340;-94
2023/05/23 07:48:41;;;;;;;20.92;4.78;;;11.30;71.50;;;;;;6182250;23;20035;-93
2023/05/23 07:51:07;;;;;;;24.95;6.13;;;11.20;71.50;;;;;;6188957;23;20012;-94
2023/05/23 07:53:33;;;;;;;24.58;5.95;;;11.30;71.40;;;;;;6162508;23;20079;-92
2023/05/23 07:56:00;;;;;;;22.98;5.78;;;11.30;71.40;;;;;;6164673;23;20780;-94
2023/05/23 07:58:26;;;;;;;23.45;5.05;;;11.30;71.10;;;;;;6156862;23;20048;-90
2023/05/23 08:00:54;;;;;;;25.00;5.53;;;11.40;70.90;;;;;;6139705;23;20024;-94
2023/05/23 08:03:20;;;;;;;23.55;6.25;;;11.40;70.90;;;;;;6212106;23;20023;-92
2023/05/23 08:05:46;;;;;;;29.95;6.50;;;11.40;71.00;;;;;;6187864;23;20013;-94
2023/05/23 08:08:12;;;;;;;28.25;6.55;;;11.50;71.00;;;;;;6180333;23;20024;-93
2023/05/23 08:10:38;;;;;;;30.95;6.50;;;11.50;70.90;;;;;;6213964;23;20016;-95
2023/05/23 08:13:05;;;;;;;26.42;5.68;;;11.60;71.20;;;;;;6161909;23;20020;-93
2023/05/23 08:15:34;;;;;;;27.10;5.68;;;11.70;71.00;;;;;;6187923;23;20017;-94
2023/05/23 08:18:00;;;;;;;23.85;6.28;;;11.80;70.70;;;;;;6180990;23;20372;-94
2023/05/23 08:20:30;;;;;;;24.92;6.43;;;11.90;70.70;;;;;;6111986;23;20099;-94
2023/05/23 08:22:57;;;;;;;27.52;6.60;;;11.90;71.00;;;;;;6136140;23;20020;-94
2023/05/23 08:25:23;;;;;;;28.65;5.75;;;12.00;71.10;;;;;;6161881;23;20044;-94
2023/05/23 08:28:02;;;;;;;25.95;5.85;;;12.00;70.60;;;;;;6131048;23;20021;-94
2023/05/23 08:30:28;;;;;;;25.55;5.88;;;12.00;70.30;;;;;;6161622;23;20039;-92
2023/05/23 08:32:57;;;;;;;24.08;5.43;;;12.00;70.30;;;;;;6184645;23;20016;-94
2023/05/23 08:35:23;;;;;;;19.15;4.72;;;12.00;69.80;;;;;;6160639;23;20090;-93
2023/05/23 08:37:56;;;;;;;22.90;5.55;;;12.00;69.60;;;;;;6154716;23;20440;-91
2023/05/23 08:40:25;;;;;;;23.02;5.65;;;12.10;69.70;;;;;;6139624;23;20518;-94
2023/05/23 08:42:51;;;;;;;26.85;5.70;;;12.30;69.40;;;;;;6162499;23;20107;-94
2023/05/23 08:45:18;;;;;;;25.02;6.00;;;12.40;69.60;;;;;;6188537;23;20407;-94
2023/05/23 08:47:45;;;;;;;21.27;5.47;;;12.40;69.60;;;;;;6157626;23;20458;-91
2023/05/23 08:50:16;;;;;;;19.95;4.68;;;12.50;69.20;;;;;;6140248;23;20051;-92
2023/05/23 08:52:58;;;;;;;22.35;4.97;;;12.50;69.00;;;;;;6161164;23;20078;-93
2023/05/23 08:55:28;;;;;;;19.88;5.30;;;12.50;68.70;;;;;;6162861;23;20027;-95
2023/05/23 08:57:56;;;;;;;24.80;5.38;;;12.50;68.70;;;;;;6178790;23;20024;-93
2023/05/23 09:00:24;;;;;;;23.98;5.63;;;12.50;69.00;;;;;;6163262;23;20443;-94
2023/05/23 09:02:53;;;;;;;24.35;4.95;;;12.50;68.80;;;;;;6160978;23;20031;-94
2023/05/23 09:05:19;;;;;;;20.88;5.18;;;12.30;68.60;;;;;;6162970;23;20344;-94
2023/05/23 09:07:50;;;;;;;27.55;6.47;;;12.20;68.60;;;;;;6155428;23;20024;-93
2023/05/23 09:10:19;;;;;;;21.85;5.35;;;12.10;68.60;;;;;;6187504;23;20467;-94
2023/05/23 09:12:48;;;;;;;25.20;5.72;;;12.00;68.90;;;;;;6162625;23;20021;-94
2023/05/23 09:15:15;;;;;;;25.75;5.35;;;12.00;68.90;;;;;;6162715;23;20036;-94
2023/05/23 09:17:43;;;;;;;21.15;5.20;;;12.10;69.20;;;;;;6179113;23;20024;-95
2023/05/23 09:20:13;;;;;;;31.92;6.18;;;12.10;69.20;;;;;;6163432;23;20067;-95
2023/05/23 09:22:40;;;;;;;27.40;6.13;;;12.20;69.30;;;;;;6196796;23;20072;-95
2023/05/23 09:25:09;;;;;;;23.02;4.90;;;12.20;69.30;;;;;;6114116;23;20024;-94
2023/05/23 09:27:38;;;;;;;24.65;5.40;;;12.20;69.00;;;;;;6164492;23;20468;-93
2023/05/23 09:30:09;;;;;;;17.45;5.10;;;12.30;69.00;;;;;;6158680;23;20027;-96
2023/05/23 09:32:35;;;;;;;27.45;5.32;;;12.40;68.80;;;;;;6156602;23;20029;-94
2023/05/23 09:35:12;;;;;;;21.10;4.85;;;12.50;68.70;;;;;;6133530;23;20021;-95
2023/05/23 09:37:42;;;;;;;21.05;4.47;;;12.50;68.20;;;;;;6152715;23;20024;-95
2023/05/23 09:40:10;;;;;;;29.25;5.95;;;12.50;68.10;;;;;;6134663;23;20104;-93
2023/05/23 09:42:44;;;;;;;20.48;5.57;;;12.60;68.20;;;;;;6132790;23;20040;-93
2023/05/23 09:45:12;;;;;;;25.45;5.30;;;12.70;68.30;;;;;;6133828;23;20087;-93
2023/05/23 09:47:37;;;;;;;34.63;5.82;;;12.70;68.40;;;;;;6123133;23;20032;-95
2023/05/23 09:50:07;;;;;;;23.52;5.45;;;12.70;68.40;;;;;;6158513;23;20495;-95
2023/05/23 09:52:37;;;;;;;22.63;5.25;;;12.50;68.20;;;;;;6131191;23;20021;-93
2023/05/23 09:55:03;;;;;;;19.00;4.80;;;12.50;68.40;;;;;;6133036;23;20032;-96
2023/05/23 09:57:36;;;;;;;26.00;5.13;;;12.50;68.00;;;;;;6125099;23;20017;-94
2023/05/23 10:00:05;;;;;;;18.45;5.22;;;12.50;68.00;;;;;;6133237;23;20375;-94
2023/05/23 10:03:12;;;;;;;24.60;5.10;;;12.70;67.80;;;;;;6083528;23;20017;-94
2023/05/23 10:06:11;;;;;;;18.85;4.22;;;12.80;67.10;;;;;;6136500;23;20069;-95
2023/05/23 10:08:49;;;;;;;19.95;4.88;;;12.90;66.50;;;;;;6140385;23;20032;-94
2023/05/23 10:11:15;;;;;;;19.48;5.07;;;13.00;67.20;;;;;;6137893;23;20028;-96
2023/05/23 10:13:57;;;;;;;19.35;4.88;;;13.10;67.30;;;;;;6158892;23;20023;-96
2023/05/23 10:17:13;;;;;;;21.08;4.70;;;13.10;66.50;;;;;;6141009;23;20096;-92
2023/05/23 10:20:11;;;;;;;20.13;4.70;;;13.10;66.70;;;;;;6153845;23;20341;-95
2023/05/23 10:22:37;;;;;;;17.83;4.57;;;13.10;66.50;;;;;;6132435;23;20386;-93
2023/05/23 10:25:10;;;;;;;20.52;4.25;;;13.00;66.60;;;;;;6133453;23;20017;-94
2023/05/23 10:27:39;;;;;;;16.52;4.65;;;13.00;66.40;;;;;;6127124;23;20020;-94
2023/05/23 10:30:07;;;;;;;20.63;4.53;;;13.10;66.60;;;;;;6164858;23;20016;-93
2023/05/23 10:32:34;;;;;;;18.13;4.57;;;13.10;66.40;;;;;;6142843;23;20448;-95
2023/05/23 10:35:30;;;;;;;21.15;4.82;;;13.20;66.20;;;;;;6164667;23;20435;-94
2023/05/23 10:38:14;;;;;;;16.50;3.92;;;13.10;65.10;;;;;;6184003;23;20048;-94
2023/05/23 10:41:07;;;;;;;22.40;5.03;;;13.10;65.50;;;;;;6188873;23;20099;-95
2023/05/23 10:43:46;;;;;;;22.48;5.13;;;13.10;65.50;;;;;;6186355;23;20455;-90
2023/05/23 10:46:13;;;;;;;25.92;5.18;;;13.00;66.40;;;;;;6188214;23;20016;-95
2023/05/23 10:48:43;;;;;;;18.88;5.03;;;12.90;66.70;;;;;;6158009;23;20081;-95
2023/05/23 10:51:38;;;;;;;21.45;5.28;;;12.90;66.60;;;;;;6163034;23;20444;-93
2023/05/23 10:54:11;;;;;;;13.88;4.50;;;12.90;66.20;;;;;;6181949;23;20475;-92
2023/05/23 10:56:40;;;;;;;17.17;4.25;;;12.90;66.20;;;;;;6159927;23;20103;-94
2023/05/23 10:59:18;;;;;;;20.20;4.25;;;13.00;66.00;;;;;;6186838;23;20474;-91
2023/05/23 11:01:44;;;;;;;19.88;4.45;;;13.00;65.70;;;;;;6164192;23;20052;-94
2023/05/23 11:04:13;;;;;;;18.88;4.72;;;12.90;65.70;;;;;;6148824;23;20119;-92
2023/05/23 11:06:43;;;;;;;23.48;5.07;;;13.00;66.30;;;;;;6184933;23;20008;-92
2023/05/23 11:09:11;;;;;;;20.90;5.32;;;13.00;66.40;;;;;;6161732;23;20048;-91
2023/05/23 11:11:56;;;;;;;19.85;4.88;;;13.10;66.80;;;;;;6163885;23;20095;-91
2023/05/23 11:14:36;;;;;;;20.20;4.22;;;13.10;66.50;;;;;;6186890;23;20526;-92
2023/05/23 11:17:11;;;;;;;22.75;5.03;;;13.10;66.10;;;;;;6184383;23;20536;-92
2023/05/23 11:20:07;;;;;;;26.65;4.90;;;13.10;66.00;;;;;;6187315;23;20032;-94
2023/05/23 11:22:36;;;;;;;23.05;4.68;;;13.00;66.00;;;;;;6163028;23;20013;-93
2023/05/23 11:25:09;;;;;;;22.95;5.10;;;12.90;66.20;;;;;;6139584;23;20017;-92
2023/05/23 11:27:36;;;;;;;25.00;4.80;;;12.90;66.50;;;;;;6143170;23;20029;-94
2023/05/23 11:30:17;;;;;;;22.70;5.45;;;13.00;66.60;;;;;;6187571;23;20451;-94
2023/05/23 11:32:54;;;;;;;20.35;4.47;;;13.00;66.20;;;;;;6163253;23;20020;-93
2023/05/23 11:35:20;;;;;;;17.92;4.45;;;12.90;65.70;;;;;;6189024;23;20316;-91
2023/05/23 11:38:18;;;;;;;16.92;4.65;;;12.80;65.90;;;;;;6135890;23;20019;-92
2023/05/23 11:40:48;;;;;;;16.70;4.00;;;12.80;65.40;;;;;;6180622;23;20095;-92
2023/05/23 11:43:15;;;;;;;18.42;4.55;;;12.90;65.40;;;;;;6186627;23;20087;-92
2023/05/23 11:45:41;;;;;;;17.30;4.68;;;12.90;65.70;;;;;;6188973;23;20016;-92
2023/05/23 11:48:10;;;;;;;24.48;4.70;;;12.90;65.50;;;;;;6182820;23;20028;-93
2023/05/23 11:50:45;;;;;;;19.33;4.65;;;12.80;65.60;;;;;;6188904;23;20453;-92
2023/05/23 11:53:21;;;;;;;;;;;;;;;;;;;;;
2023/05/23 11:55:58;;;;;;;19.73;4.70;;;12.90;65.40;;;;;;6165704;23;20017;-93
2023/05/23 11:58:37;;;;;;;24.02;5.22;;;13.00;65.40;;;;;;6182854;23;20078;-92
2023/05/23 12:01:20;;;;;;;21.60;4.50;;;13.10;65.70;;;;;;6188851;23;20047;-93
2023/05/23 12:03:57;;;;;;;15.73;4.55;;;13.20;66.20;;;;;;6186191;23;20025;-92
2023/05/23 12:06:23;;;;;;;24.83;4.88;;;13.20;65.80;;;;;;6161666;23;20058;-95
2023/05/23 12:08:51;;;;;;;26.05;5.78;;;13.10;66.10;;;;;;6169773;23;20020;-93
2023/05/23 12:11:17;;;;;;;19.00;4.90;;;12.90;66.40;;;;;;6188379;23;20431;-92
2023/05/23 12:13:43;;;;;;;21.45;5.43;;;12.90;66.70;;;;;;6137868;23;20017;-93
2023/05/23 12:16:17;;;;;;;19.98;4.63;;;12.80;66.40;;;;;;6210234;23;20071;-96
2023/05/23 12:19:02;;;;;;;16.55;4.05;;;12.80;66.00;;;;;;6162540;23;20887;-92
2023/05/23 12:22:04;;;;;;;14.45;3.58;;;12.90;65.90;;;;;;6188121;23;20017;-93
2023/05/23 12:24:30;;;;;;;15.40;3.78;;;12.90;64.50;;;;;;6187493;23;20320;-91
2023/05/23 12:27:03;;;;;;;14.30;3.90;;;12.90;65.60;;;;;;6178476;23;20031;-92
2023/05/23 12:30:09;;;;;;;18.13;4.13;;;12.90;65.00;;;;;;6184605;23;20031;-94
2023/05/23 12:32:39;;;;;;;18.02;4.50;;;12.90;64.40;;;;;;6163932;23;20072;-92
2023/05/23 12:35:07;;;;;;;19.33;4.20;;;13.00;65.20;;;;;;6145297;23;20036;-93
2023/05/23 12:37:32;;;;;;;22.77;4.60;;;13.00;65.40;;;;;;6181154;23;20020;-95
2023/05/23 12:40:17;;;;;;;19.95;4.18;;;13.00;65.70;;;;;;6188133;23;20028;-94
2023/05/23 12:43:12;;;;;;;14.30;3.88;;;12.90;65.50;;;;;;6187003;23;20082;-92
2023/05/23 12:45:38;;;;;;;16.83;3.72;;;12.90;65.10;;;;;;6162654;23;20051;-93
2023/05/23 12:48:07;;;;;;;15.00;3.58;;;12.90;65.20;;;;;;6132283;23;20024;-95
2023/05/23 12:50:43;;;;;;;13.32;3.55;;;13.00;64.70;;;;;;6188286;23;20016;-91